Time;durP1;ratioP1;P1;durP2;ratioP2;P2;SDS_P1;SDS_P2;PMS_P1;PMS_P2;Temp;Humidity;BMP_temperature;BMP_pressure;BME280_temperature;BME280_humidity;BME280_pressure;Samples;Min_cycle;Max_cycle;Signal;HPM_P1;HPM_P2
2024/04/12 00:01:13;;;;;;;;;17.00;15.75;;;;;16.83;83.15;102866.75;5236421;27;43885;-69
2024/04/12 00:03:39;;;;;;;;;17.50;16.50;;;;;16.78;82.90;102854.31;5225326;27;45700;-70
2024/04/12 00:06:13;;;;;;;;;17.50;17.25;;;;;16.81;82.86;102854.25;5255660;27;44108;-70
2024/04/12 00:08:39;;;;;;;;;16.75;16.00;;;;;16.70;82.23;102841.00;5220974;27;44069;-69
2024/04/12 00:11:05;;;;;;;;;15.50;14.75;;;;;16.66;83.01;102836.63;5255374;27;43871;-70
2024/04/12 00:13:36;;;;;;;;;14.25;13.00;;;;;16.70;82.59;102841.00;5255238;27;44315;-70
2024/04/12 00:16:03;;;;;;;;;14.25;11.50;;;;;16.88;83.12;102871.19;5255627;27;44146;-69
2024/04/12 00:18:29;;;;;;;;;14.75;14.75;;;;;16.66;82.55;102837.50;5252912;27;43876;-70
2024/04/12 00:20:58;;;;;;;;;15.75;14.00;;;;;16.65;83.39;102827.63;5255464;27;43955;-69
2024/04/12 00:23:39;;;;;;;;;15.50;15.25;;;;;16.74;82.96;102850.81;5253181;27;43919;-70
2024/04/12 00:26:04;;;;;;;;;13.00;13.00;;;;;16.60;83.66;102824.16;5254593;27;43854;-69
2024/04/12 00:28:30;;;;;;;;;15.75;14.50;;;;;16.58;83.46;102826.03;5225124;27;43857;-70
2024/04/12 00:31:00;;;;;;;;;17.50;14.75;;;;;16.67;83.50;102842.00;5255139;27;44090;-69
2024/04/12 00:33:33;;;;;;;;;16.50;16.25;;;;;16.68;82.57;102850.94;5204182;27;47058;-69
2024/04/12 00:36:11;;;;;;;;;17.25;16.00;;;;;16.73;82.84;102864.31;5232648;27;44000;-69
2024/04/12 00:38:46;;;;;;;;;14.00;13.25;;;;;16.67;83.60;102860.88;5254670;27;43903;-70
2024/04/12 00:41:18;;;;;;;;;14.25;13.75;;;;;16.62;84.01;102854.69;5255034;27;43859;-69
2024/04/12 00:43:51;;;;;;;;;17.50;16.25;;;;;16.52;84.14;102836.94;5222744;27;45597;-69
2024/04/12 00:46:25;;;;;;;;;16.75;15.00;;;;;16.44;83.55;102826.38;5255285;27;43803;-69
2024/04/12 00:48:52;;;;;;;;;15.25;14.00;;;;;16.49;82.99;102834.34;5254772;27;44059;-69
2024/04/12 00:51:19;;;;;;;;;15.50;15.50;;;;;16.62;83.89;102860.09;5254942;27;43899;-69
2024/04/12 00:53:46;;;;;;;;;16.50;15.50;;;;;16.53;83.92;102846.81;5251387;27;44442;-70
2024/04/12 00:56:13;;;;;;;;;14.75;13.50;;;;;16.38;83.31;102825.63;5224610;27;43799;-69
2024/04/12 00:58:41;;;;;;;;;16.25;15.00;;;;;16.42;83.95;102830.91;5247400;27;43858;-69
2024/04/12 01:01:16;;;;;;;;;15.75;15.00;;;;;16.47;83.27;102841.56;5219354;27;44102;-70
2024/04/12 01:03:46;;;;;;;;;17.50;16.00;;;;;16.52;83.81;102860.31;5250499;27;44190;-69
2024/04/12 01:06:21;;;;;;;;;15.75;15.50;;;;;16.47;83.67;102841.56;5254908;27;44115;-69
2024/04/12 01:08:51;;;;;;;;;12.75;12.75;;;;;16.37;84.15;102816.66;5241618;27;43907;-69
2024/04/12 01:11:19;;;;;;;;;16.75;15.75;;;;;16.35;83.84;102823.00;5237882;27;43898;-69
2024/04/12 01:13:46;;;;;;;;;16.25;16.25;;;;;16.46;84.09;102845.19;5237252;27;45316;-70
2024/04/12 01:16:11;;;;;;;;;13.75;13.75;;;;;16.42;83.80;102846.19;5253841;27;44107;-70
2024/04/12 01:18:36;;;;;;;;;16.00;14.25;;;;;16.31;83.95;102841.03;5254151;27;43909;-69
2024/04/12 01:21:10;;;;;;;;;13.50;13.50;;;;;16.17;83.60;102825.22;5231975;27;43903;-69
2024/04/12 01:23:48;;;;;;;;;15.75;12.75;;;;;16.29;84.37;102849.16;5223398;27;45845;-69
2024/04/12 01:26:17;;;;;;;;;9.00;9.00;;;;;16.18;84.30;102835.03;5209665;27;44307;-69
2024/04/12 01:28:43;;;;;;;;;14.75;14.00;;;;;16.09;83.72;102824.50;5204730;27;44389;-69
2024/04/12 01:31:14;;;;;;;;;14.75;14.75;;;;;16.16;84.57;102841.41;5254519;27;43922;-69
2024/04/12 01:33:40;;;;;;;;;15.25;13.50;;;;;16.14;83.91;102833.34;5254721;27;44324;-69
2024/04/12 01:36:10;;;;;;;;;13.75;11.50;;;;;16.25;84.58;102852.84;5254694;27;44003;-69
2024/04/12 01:38:37;;;;;;;;;14.25;14.25;;;;;16.03;84.13;102808.44;5254708;27;43831;-69
2024/04/12 01:41:08;;;;;;;;;13.25;11.75;;;;;16.04;84.73;102811.13;5239916;27;43988;-69
2024/04/12 01:43:38;;;;;;;;;15.75;14.50;;;;;16.08;84.73;102809.22;5254368;27;44110;-69
2024/04/12 01:46:04;;;;;;;;;14.50;14.50;;;;;16.07;84.51;102808.34;5254561;27;44553;-69
2024/04/12 01:48:34;;;;;;;;;14.75;12.75;;;;;16.07;84.64;102808.34;5223765;27;43906;-69
2024/04/12 01:51:04;;;;;;;;;11.75;11.75;;;;;16.06;84.50;102801.19;5254477;27;44222;-69
2024/04/12 01:53:37;;;;;;;;;13.25;13.00;;;;;16.07;84.49;102802.97;5251808;27;45044;-69
2024/04/12 01:56:03;;;;;;;;;13.75;13.75;;;;;16.15;84.15;102818.06;5243259;27;44252;-69
2024/04/12 01:58:29;;;;;;;;;12.00;12.00;;;;;16.01;84.62;102792.31;5254318;27;43835;-69
2024/04/12 02:00:54;;;;;;;;;14.50;14.50;;;;;16.15;84.34;102821.63;5252585;27;43763;-69
2024/04/12 02:03:21;;;;;;;;;14.00;14.00;;;;;16.14;84.04;102805.50;5253997;27;43857;-69
2024/04/12 02:05:49;;;;;;;;;13.25;13.00;;;;;15.99;85.37;102787.88;5254360;27;44222;-69
2024/04/12 02:08:17;;;;;;;;;15.25;13.75;;;;;15.87;84.89;102773.78;5254544;27;44124;-69
2024/04/12 02:10:44;;;;;;;;;16.00;15.00;;;;;16.07;85.12;102807.44;5245996;27;44051;-69
2024/04/12 02:13:17;;;;;;;;;15.25;12.50;;;;;16.10;85.69;102818.16;5223569;27;46114;-70
2024/04/12 02:15:46;;;;;;;;;14.50;13.00;;;;;15.99;84.54;102794.16;5235473;27;43777;-69
2024/04/12 02:18:13;;;;;;;;;12.75;12.75;;;;;16.09;84.90;102808.31;5189823;27;44004;-69
2024/04/12 02:20:40;;;;;;;;;12.25;12.25;;;;;15.90;84.69;102778.19;5220864;27;43867;-69
2024/04/12 02:23:07;;;;;;;;;10.00;8.75;;;;;15.95;84.21;102788.88;5219213;27;43832;-69
2024/04/12 02:25:33;;;;;;;;;13.50;12.75;;;;;16.01;85.21;102800.41;5220149;27;43934;-69
2024/04/12 02:28:00;;;;;;;;;12.25;12.25;;;;;15.98;85.00;102783.44;5209027;27;44018;-70
2024/04/12 02:30:25;;;;;;;;;12.75;12.75;;;;;16.08;84.55;102801.16;5220820;27;44159;-69
2024/04/12 02:32:52;;;;;;;;;13.00;12.00;;;;;16.00;85.31;102784.28;5220231;27;43981;-69
2024/04/12 02:35:20;;;;;;;;;13.25;12.50;;;;;15.88;84.26;102777.34;5220700;27;44138;-69
2024/04/12 02:37:48;;;;;;;;;12.00;12.00;;;;;15.91;84.23;102785.38;5217934;27;43967;-70
2024/04/12 02:40:15;;;;;;;;;16.75;15.00;;;;;16.01;84.72;102804.91;5217509;27;43849;-69
2024/04/12 02:42:46;;;;;;;;;12.50;12.50;;;;;15.78;85.28;102768.59;5219513;27;45281;-69
2024/04/12 02:45:12;;;;;;;;;14.00;13.00;;;;;15.81;85.10;102775.72;5220262;27;44035;-69
2024/04/12 02:47:44;;;;;;;;;12.75;12.75;;;;;15.86;84.93;102795.38;5218414;27;44027;-69
2024/04/12 02:50:10;;;;;;;;;13.25;11.50;;;;;15.85;85.18;102791.75;5220338;27;44042;-69
2024/04/12 02:52:38;;;;;;;;;15.50;13.75;;;;;15.81;84.93;102786.50;5220092;27;43820;-69
2024/04/12 02:55:12;;;;;;;;;15.00;13.00;;;;;15.96;84.58;102809.53;5220092;27;44089;-69
2024/04/12 02:57:41;;;;;;;;;9.25;8.50;;;;;15.74;84.91;102788.41;5185100;27;43966;-69
2024/04/12 03:00:21;;;;;;;;;11.50;11.00;;;;;15.73;85.81;102778.53;5220185;27;44266;-69
2024/04/12 03:02:51;;;;;;;;;13.25;12.00;;;;;15.77;85.30;102788.38;5190756;27;45891;-69
2024/04/12 03:05:18;;;;;;;;;11.75;11.25;;;;;15.70;85.47;102779.50;5220121;27;43843;-69
2024/04/12 03:07:45;;;;;;;;;13.00;13.00;;;;;15.70;85.44;102784.00;5219028;27;44024;-69
2024/04/12 03:10:23;;;;;;;;;11.75;10.75;;;;;15.67;84.78;102789.44;5190209;27;43876;-69
2024/04/12 03:12:51;;;;;;;;;12.75;12.00;;;;;15.68;85.74;102793.91;5189576;27;46212;-69
2024/04/12 03:15:19;;;;;;;;;12.25;11.00;;;;;15.65;85.04;102788.59;5219673;27;43959;-69
2024/04/12 03:17:47;;;;;;;;;13.00;13.00;;;;;15.67;85.38;102795.72;5190333;27;43849;-69
2024/04/12 03:20:15;;;;;;;;;12.50;11.50;;;;;15.66;84.75;102798.44;5219950;27;43881;-69
2024/04/12 03:22:43;;;;;;;;;13.75;11.75;;;;;15.77;84.81;102815.31;5219346;27;44348;-69
2024/04/12 03:25:09;;;;;;;;;14.00;13.25;;;;;15.67;84.73;102795.72;5219362;27;44091;-69
2024/04/12 03:27:34;;;;;;;;;16.50;14.25;;;;;15.76;84.34;102810.81;5199011;27;44249;-69
2024/04/12 03:29:59;;;;;;;;;9.50;9.50;;;;;15.62;85.26;102796.72;5217841;27;43887;-69
2024/04/12 03:32:32;;;;;;;;;15.50;14.00;;;;;15.59;85.11;102796.81;5219586;27;46514;-70
2024/04/12 03:34:59;;;;;;;;;11.50;11.50;;;;;15.53;85.70;102787.91;5218481;27;43896;-69
2024/04/12 03:37:36;;;;;;;;;11.75;11.75;;;;;15.73;84.97;102827.88;5218940;27;43879;-69
2024/04/12 03:40:15;;;;;;;;;12.00;12.00;;;;;15.74;84.39;102836.88;5219518;27;44024;-69
2024/04/12 03:42:41;;;;;;;;;12.25;12.00;;;;;15.60;84.24;102818.28;5173516;27;45425;-69
2024/04/12 03:45:12;;;;;;;;;11.75;11.50;;;;;15.50;85.42;102800.56;5219523;27;44074;-69
2024/04/12 03:47:39;;;;;;;;;12.00;12.00;;;;;15.52;84.83;102802.31;5219174;27;43999;-69
2024/04/12 03:50:13;;;;;;;;;14.00;13.00;;;;;15.45;84.55;102797.97;5219732;27;44019;-69
2024/04/12 03:52:41;;;;;;;;;12.50;12.25;;;;;15.43;84.88;102788.16;5219188;27;43955;-69
2024/04/12 03:55:09;;;;;;;;;15.00;14.00;;;;;15.41;85.15;102798.94;5219203;27;43947;-69
2024/04/12 03:57:38;;;;;;;;;13.25;12.00;;;;;15.60;85.05;102825.50;5199493;27;44290;-69
2024/04/12 04:00:11;;;;;;;;;14.75;14.50;;;;;15.45;85.01;102802.47;5202131;27;44182;-69
2024/04/12 04:02:37;;;;;;;;;12.75;12.00;;;;;15.41;84.29;102798.06;5212811;27;45234;-69
2024/04/12 04:05:15;;;;;;;;;13.75;13.75;;;;;15.37;84.69;102791.88;5218983;27;43769;-69
2024/04/12 04:07:44;;;;;;;;;12.00;11.00;;;;;15.38;85.21;102796.31;5211948;27;44107;-70
2024/04/12 04:10:13;;;;;;;;;14.50;14.00;;;;;15.33;85.35;102784.75;5217263;27;44084;-69
2024/04/12 04:12:45;;;;;;;;;14.75;12.75;;;;;15.37;85.03;102799.94;5170480;27;45852;-69
2024/04/12 04:15:12;;;;;;;;;13.00;13.00;;;;;15.52;85.27;102823.84;5215962;27;44091;-70
2024/04/12 04:17:37;;;;;;;;;10.75;10.75;;;;;15.44;84.33;102811.47;5188760;27;43890;-69
2024/04/12 04:20:06;;;;;;;;;15.00;14.00;;;;;15.31;84.69;102789.28;5218146;27;48767;-70
2024/04/12 04:25:00;;;;;;;;;18.00;18.00;;;;;15.30;85.00;102791.09;5216633;27;44178;-69
2024/04/12 04:27:26;;;;;;;;;14.25;13.50;;;;;15.21;85.02;102777.81;5200415;27;43985;-69
2024/04/12 04:29:55;;;;;;;;;16.75;15.25;;;;;15.32;85.21;102794.63;5216402;27;43864;-69
2024/04/12 04:32:22;;;;;;;;;19.25;14.00;;;;;15.42;86.10;102811.50;5218586;27;44235;-69
2024/04/12 04:34:54;;;;;;;;;13.50;13.00;;;;;15.28;84.77;102797.41;5188821;27;43991;-70
2024/04/12 04:37:23;;;;;;;;;14.50;14.00;;;;;15.25;85.54;102795.69;5217484;27;43929;-69
2024/04/12 04:39:48;;;;;;;;;15.00;14.00;;;;;15.25;85.12;102792.09;5187984;27;44085;-69
2024/04/12 04:42:13;;;;;;;;;12.75;12.00;;;;;15.22;86.00;102790.34;5218096;27;43947;-69
2024/04/12 04:44:42;;;;;;;;;14.25;14.00;;;;;15.34;85.33;102808.94;5217249;27;43940;-69
2024/04/12 04:47:08;;;;;;;;;18.00;14.50;;;;;15.24;85.57;102804.66;5220713;27;43927;-69
2024/04/12 04:49:33;;;;;;;;;14.00;13.25;;;;;15.17;84.96;102793.13;5221381;27;44083;-69
2024/04/12 04:52:01;;;;;;;;;14.25;13.50;;;;;15.14;85.14;102793.19;5190209;27;46919;-70
2024/04/12 04:54:26;;;;;;;;;16.50;14.00;;;;;15.32;85.40;102817.97;5188022;27;44296;-69
2024/04/12 04:56:52;;;;;;;;;15.75;14.75;;;;;15.21;86.14;102801.16;5188092;27;43952;-69
2024/04/12 04:59:18;;;;;;;;;15.50;14.75;;;;;15.33;85.35;102830.50;5218537;27;51039;-69
2024/04/12 05:01:44;;;;;;;;;14.00;13.00;;;;;15.34;85.42;102827.78;5221046;27;44885;-69
2024/04/12 05:04:15;;;;;;;;;13.50;11.50;;;;;15.15;84.95;102796.75;5221349;27;43948;-69
2024/04/12 05:06:41;;;;;;;;;14.50;14.25;;;;;15.16;84.85;102809.28;5220002;27;43828;-69
2024/04/12 05:09:08;;;;;;;;;13.50;13.00;;;;;15.25;85.85;102827.06;5220035;27;44049;-69
2024/04/12 05:11:34;;;;;;;;;17.00;15.50;;;;;15.15;85.61;102812.88;5220937;27;45344;-69
2024/04/12 05:14:13;;;;;;;;;18.00;14.75;;;;;15.26;85.42;102827.03;5195248;27;44233;-69
2024/04/12 05:16:40;;;;;;;;;14.00;14.00;;;;;15.27;85.99;102827.91;5159008;27;44038;-69
2024/04/12 05:19:08;;;;;;;;;13.00;12.25;;;;;15.19;85.13;102815.50;5177070;27;44632;-69
2024/04/12 05:21:40;;;;;;;;;13.25;11.25;;;;;15.10;85.30;102802.25;5218016;27;44020;-69
2024/04/12 05:24:10;;;;;;;;;14.50;14.25;;;;;15.10;85.95;102804.94;5191183;27;44457;-69
2024/04/12 05:26:37;;;;;;;;;16.50;16.50;;;;;15.12;85.05;102819.22;5214879;27;43953;-69
2024/04/12 05:29:06;;;;;;;;;18.50;14.00;;;;;15.07;85.69;102813.06;5220891;27;43984;-70
2024/04/12 05:31:31;;;;;;;;;14.75;14.75;;;;;15.06;85.72;102811.25;5212089;27;44785;-69
2024/04/12 05:33:58;;;;;;;;;13.00;13.00;;;;;15.03;85.28;102811.31;5220887;27;43835;-69
2024/04/12 05:36:23;;;;;;;;;12.75;11.75;;;;;15.03;85.42;102810.44;5219714;27;43946;-69
2024/04/12 05:38:48;;;;;;;;;18.50;18.50;;;;;15.09;85.63;102813.03;5189373;27;44079;-70
2024/04/12 05:41:15;;;;;;;;;18.25;17.00;;;;;15.06;86.09;102818.44;5220113;27;43844;-69
2024/04/12 05:43:41;;;;;;;;;14.75;14.75;;;;;15.03;85.94;102821.19;5220081;27;43847;-69
2024/04/12 05:46:06;;;;;;;;;18.00;15.00;;;;;15.20;86.00;102848.66;5220918;27;44095;-70
2024/04/12 05:48:33;;;;;;;;;17.25;17.25;;;;;15.08;85.50;102830.06;5219979;27;44106;-69
2024/04/12 05:51:01;;;;;;;;;16.50;15.00;;;;;15.10;86.15;102839.91;5220711;27;44749;-69
2024/04/12 05:53:31;;;;;;;;;18.75;18.50;;;;;15.06;86.13;102835.47;5220273;27;44002;-69
2024/04/12 05:58:42;;;;;;;;;14.00;14.00;;;;;14.99;86.46;102823.06;5212225;27;43796;-69
2024/04/12 06:01:10;;;;;;;;;17.00;15.00;;;;;15.06;86.38;102842.66;5220721;27;43995;-69
2024/04/12 06:03:42;;;;;;;;;16.00;16.00;;;;;15.17;86.79;102868.44;5216472;27;44192;-69
2024/04/12 06:06:12;;;;;;;;;19.50;18.75;;;;;15.06;86.17;102848.91;5219810;27;45979;-69
2024/04/12 06:08:37;;;;;;;;;14.50;14.50;;;;;15.08;85.82;102856.97;5220312;27;43999;-69
2024/04/12 06:11:03;;;;;;;;;16.50;15.50;;;;;14.87;86.57;102832.22;5215832;27;45040;-69
2024/04/12 06:13:29;;;;;;;;;18.00;18.00;;;;;14.95;87.42;102854.50;5216427;27;43914;-70
2024/04/12 06:15:55;;;;;;;;;20.00;20.00;;;;;14.86;87.68;102835.81;5218009;27;43897;-69
2024/04/12 06:18:20;;;;;;;;;18.00;17.50;;;;;14.87;87.06;102834.91;5230853;27;43979;-69
2024/04/12 06:20:45;;;;;;;;;19.25;18.25;;;;;14.85;87.95;102835.84;5190822;27;45992;-69
2024/04/12 06:23:11;;;;;;;;;19.75;17.75;;;;;14.86;87.92;102834.94;5217382;27;43900;-69
2024/04/12 06:25:45;;;;;;;;;18.75;17.75;;;;;14.92;87.51;102851.84;5218411;27;44082;-69
2024/04/12 06:28:12;;;;;;;;;18.25;18.25;;;;;14.89;87.62;102849.22;5217911;27;43956;-70
2024/04/12 06:30:41;;;;;;;;;21.00;21.00;;;;;14.89;88.05;102833.09;5190715;27;45924;-68
2024/04/12 06:33:07;;;;;;;;;19.75;18.50;;;;;15.00;88.09;102858.00;5214278;27;44072;-68
2024/04/12 06:35:33;;;;;;;;;19.25;19.25;;;;;14.88;88.47;102843.84;5212471;27;43956;-68
2024/04/12 06:37:59;;;;;;;;;24.75;21.00;;;;;14.87;87.75;102837.59;5175220;27;44418;-68
2024/04/12 06:40:28;;;;;;;;;21.75;20.75;;;;;14.84;88.49;102837.66;5218971;27;44917;-68
2024/04/12 06:43:05;;;;;;;;;19.00;18.50;;;;;14.84;88.74;102832.28;5189435;27;44476;-68
2024/04/12 06:45:41;;;;;;;;;25.00;25.00;;;;;14.86;88.39;102835.81;5212739;27;43891;-69
2024/04/12 06:48:19;;;;;;;;;23.00;23.00;;;;;14.88;89.17;102841.16;5217025;27;44244;-69
2024/04/12 06:50:58;;;;;;;;;28.50;26.25;;;;;14.95;89.02;102857.19;5211707;27;44757;-69
2024/04/12 06:53:24;;;;;;;;;24.75;20.75;;;;;14.97;89.37;102854.47;5214571;27;44521;-69
2024/04/12 06:55:54;;;;;;;;;25.75;23.25;;;;;15.00;90.02;102859.78;5199261;27;44024;-69
2024/04/12 06:58:21;;;;;;;;;22.75;22.75;;;;;15.01;90.21;102850.81;5216875;27;44060;-67
2024/04/12 07:00:53;;;;;;;;;20.00;18.25;;;;;15.09;90.09;102862.31;5218691;27;44325;-67
2024/04/12 07:03:22;;;;;;;;;22.25;22.00;;;;;15.09;89.41;102856.94;5218837;27;43825;-67
2024/04/12 07:05:53;;;;;;;;;25.00;25.00;;;;;15.14;90.10;102862.25;5199326;27;46262;-67
2024/04/12 07:08:26;;;;;;;;;20.50;19.00;;;;;15.19;90.26;102857.66;5175343;27;44092;-67
2024/04/12 07:10:52;;;;;;;;;21.00;19.50;;;;;15.21;90.42;102849.56;5190212;27;45241;-67
2024/04/12 07:13:21;;;;;;;;;24.25;21.00;;;;;15.31;90.09;102856.56;5209885;27;46152;-67
2024/04/12 07:15:48;;;;;;;;;20.50;19.50;;;;;15.22;90.32;102840.56;5203462;27;44332;-66
2024/04/12 07:18:15;;;;;;;;;20.00;17.75;;;;;15.43;89.94;102869.75;5215453;27;44055;-70
2024/04/12 07:20:44;;;;;;;;;17.25;16.50;;;;;15.36;90.87;102842.09;5208214;27;44188;-70
2024/04/12 07:23:10;;;;;;;;;16.75;16.25;;;;;15.48;90.34;102853.53;5199921;27;44120;-69
2024/04/12 07:25:39;;;;;;;;;15.75;15.75;;;;;15.55;90.20;102861.47;5212898;27;44347;-69
2024/04/12 07:28:08;;;;;;;;;15.50;15.50;;;;;15.65;90.47;102863.97;5206468;27;43916;-69
2024/04/12 07:30:37;;;;;;;;;11.25;11.00;;;;;15.65;90.66;102867.56;5187094;27;44868;-69
2024/04/12 07:33:05;;;;;;;;;15.25;12.25;;;;;15.69;90.90;102857.63;5166518;27;43945;-69
2024/04/12 07:35:32;;;;;;;;;14.50;12.75;;;;;15.74;90.18;102861.97;5215275;27;44265;-67
2024/04/12 07:38:01;;;;;;;;;15.25;15.25;;;;;15.84;90.12;102862.72;5205936;27;44032;-70
2024/04/12 07:40:31;;;;;;;;;14.00;13.50;;;;;15.93;90.52;102873.28;5211541;27;44182;-72
2024/04/12 07:42:58;;;;;;;;;15.00;12.00;;;;;16.01;90.46;102878.53;5206279;27;44267;-68
2024/04/12 07:45:26;;;;;;;;;10.25;10.00;;;;;15.99;90.23;102861.50;5173158;27;44009;-69
2024/04/12 07:48:11;;;;;;;;;13.75;13.75;;;;;16.13;89.88;102877.38;5196429;27;44146;-72
2024/04/12 07:50:39;;;;;;;;;14.50;14.50;;;;;16.25;89.57;102887.88;5185631;27;44885;-73
2024/04/12 07:53:15;;;;;;;;;12.75;11.75;;;;;16.21;89.25;102870.00;5203787;27;44040;-71
2024/04/12 07:55:41;;;;;;;;;12.00;11.75;;;;;16.13;89.17;102844.16;5183403;27;43932;-67
2024/04/12 07:58:12;;;;;;;;;14.00;12.75;;;;;16.16;88.99;102841.41;5209546;27;44076;-67
2024/04/12 08:00:45;;;;;;;;;11.75;11.50;;;;;16.28;88.80;102852.78;5201853;27;43911;-67
2024/04/12 08:03:15;;;;;;;;;12.00;10.75;;;;;16.31;89.64;102846.44;5213222;27;45635;-68
2024/04/12 08:08:43;;;;;;;;;10.50;10.50;;;;;16.56;89.32;102862.91;5196436;27;44115;-68
2024/04/12 08:11:31;;;;;;;;;10.50;10.00;;;;;16.71;88.93;102882.38;5208155;27;44275;-68
2024/04/12 08:14:05;;;;;;;;;10.00;10.00;;;;;16.59;88.26;102854.75;5175527;27;44020;-68
2024/04/12 08:16:39;;;;;;;;;10.25;10.25;;;;;16.59;88.08;102854.75;5191149;27;43978;-68
2024/04/12 08:19:14;;;;;;;;;10.75;9.75;;;;;16.65;88.17;102851.03;5205673;27;44142;-68
2024/04/12 08:21:44;;;;;;;;;9.25;8.75;;;;;16.66;87.74;102842.91;5205356;27;45217;-67
2024/04/12 08:24:13;;;;;;;;;10.25;9.25;;;;;16.79;87.95;102865.06;5174428;27;44396;-67
2024/04/12 08:26:45;;;;;;;;;9.75;8.00;;;;;16.79;87.85;102845.28;5217219;27;43911;-68
2024/04/12 08:29:20;;;;;;;;;10.00;10.00;;;;;16.92;88.42;102862.97;5211866;27;44026;-67
2024/04/12 08:31:48;;;;;;;;;14.75;13.25;;;;;17.08;87.63;102889.56;5216094;27;44937;-67
2024/04/12 08:34:15;;;;;;;;;8.00;8.00;;;;;17.11;87.17;102887.69;5182591;27;45300;-71
2024/04/12 08:36:43;;;;;;;;;13.50;11.50;;;;;17.14;87.55;102887.59;5209261;27;43938;-68
2024/04/12 08:39:25;;;;;;;;;16.50;14.50;;;;;17.06;86.76;102861.72;5187001;27;45267;-69
2024/04/12 08:42:01;;;;;;;;;11.00;11.00;;;;;17.11;87.32;102860.69;5211948;27;44322;-69
2024/04/12 08:44:35;;;;;;;;;12.50;11.00;;;;;17.32;87.13;102886.22;5170705;27;44664;-69
2024/04/12 08:50:07;;;;;;;;;10.50;9.50;;;;;17.26;87.06;102851.31;5203288;27;44260;-68
2024/04/12 08:52:47;;;;;;;;;13.00;11.50;;;;;17.36;86.92;102860.03;5207125;27;44386;-69
2024/04/12 08:55:15;;;;;;;;;13.00;12.00;;;;;17.56;87.12;102881.09;5203754;27;44384;-69
2024/04/12 08:57:42;;;;;;;;;12.50;12.50;;;;;17.52;86.11;102866.78;5215846;27;44001;-69
2024/04/12 09:00:21;;;;;;;;;12.25;11.50;;;;;17.53;86.23;102855.06;5219239;27;44207;-69
2024/04/12 09:02:58;;;;;;;;;13.75;13.00;;;;;17.63;86.56;102863.78;5183104;27;45792;-69
2024/04/12 09:05:24;;;;;;;;;13.50;12.25;;;;;17.64;86.50;102860.16;5203186;27;43960;-69
2024/04/12 09:07:51;;;;;;;;;11.00;10.50;;;;;17.80;86.45;102867.81;5215942;27;43948;-74
2024/04/12 09:10:19;;;;;;;;;13.00;11.00;;;;;17.83;86.61;102873.13;5204125;27;43870;-72
2024/04/12 09:12:46;;;;;;;;;12.00;10.50;;;;;17.73;86.31;102840.97;5189210;27;44345;-70
2024/04/12 09:15:23;;;;;;;;;10.50;9.75;;;;;17.90;85.95;102851.31;5187098;27;44532;-68
2024/04/12 09:18:00;;;;;;;;;10.25;9.75;;;;;18.09;86.29;102878.69;5204336;27;44061;-70
2024/04/12 09:20:30;;;;;;;;;12.50;11.00;;;;;17.93;84.96;102832.31;5204061;27;44175;-70
2024/04/12 09:23:16;;;;;;;;;11.50;9.25;;;;;18.13;85.39;102871.38;5190973;27;44946;-70
2024/04/12 09:25:54;;;;;;;;;7.50;7.50;;;;;18.23;84.45;102871.97;5179938;27;44388;-69
2024/04/12 09:28:26;;;;;;;;;10.00;9.50;;;;;18.11;84.42;102846.22;5209702;27;43972;-70
2024/04/12 09:33:39;;;;;;;;;7.00;6.00;;;;;18.42;84.88;102874.97;5203598;27;44800;-70
2024/04/12 09:36:06;;;;;;;;;4.50;4.50;;;;;18.48;84.32;102875.66;5179215;27;44702;-70
2024/04/12 09:38:39;;;;;;;;;6.25;4.75;;;;;18.54;83.37;102884.53;5188716;27;44075;-70
2024/04/12 09:41:27;;;;;;;;;8.75;5.50;;;;;18.45;83.12;102858.66;5217592;27;43891;-70
2024/04/12 09:43:59;;;;;;;;;6.00;6.00;;;;;18.47;82.66;102856.78;5200618;27;44875;-71
2024/04/12 09:46:36;;;;;;;;;4.75;4.75;;;;;18.48;82.95;102847.75;5218522;27;44906;-70
2024/04/12 10:38:39;;;;;;;;;4.75;3.75;;;;;19.78;75.52;102839.66;5249913;27;43859;-70
2024/04/12 10:41:07;;;;;;;;;2.75;2.75;;;;;19.85;76.33;102834.88;5210749;27;43912;-73
2024/04/12 10:43:38;;;;;;;;;3.50;3.25;;;;;20.07;74.81;102862.03;5221762;27;44012;-73
2024/04/12 10:46:10;;;;;;;;;4.75;3.25;;;;;20.12;74.59;102861.88;5206287;27;44234;-72
2024/04/12 10:48:36;;;;;;;;;5.00;5.00;;;;;19.95;73.96;102825.44;5243437;27;45695;-73
2024/04/12 10:51:04;;;;;;;;;6.50;4.00;;;;;20.09;72.88;102840.28;5241704;27;44475;-74
2024/04/12 10:53:31;;;;;;;;;4.00;4.00;;;;;19.99;73.62;102821.66;5240197;27;43919;-74
2024/04/12 10:56:02;;;;;;;;;2.75;2.75;;;;;20.10;73.17;102834.81;5247492;27;44073;-74
2024/04/12 10:58:33;;;;;;;;;5.00;5.00;;;;;20.25;73.94;102837.88;5211259;27;44958;-73
2024/04/12 11:01:00;;;;;;;;;3.00;3.00;;;;;20.23;73.28;102827.09;5225701;27;43931;-73
2024/04/12 11:03:29;;;;;;;;;3.00;2.25;;;;;20.27;72.08;102823.28;5243669;27;43966;-73
2024/04/12 11:06:10;;;;;;;;;8.00;7.50;;;;;20.24;71.72;102804.41;5246174;27;44030;-70
2024/04/12 11:08:36;;;;;;;;;7.00;4.00;;;;;20.32;72.10;102814.97;5239016;27;45115;-70
2024/04/12 11:11:19;;;;;;;;;4.00;2.00;;;;;20.36;71.42;102814.78;5242640;27;44269;-72
2024/04/12 11:13:47;;;;;;;;;6.00;3.25;;;;;20.39;71.62;102802.03;5243729;27;44537;-70
2024/04/12 11:32:42;;;;;;;;;3.75;3.00;;;;;20.72;68.62;102803.38;5192314;27;44001;-68
2024/04/12 11:35:11;;;;;;;;;4.00;3.00;;;;;20.58;68.47;102770.50;5201689;27;44060;-70
2024/04/12 11:37:40;;;;;;;;;4.50;2.50;;;;;20.64;67.08;102783.81;5215173;27;44572;-67
2024/04/12 11:40:16;;;;;;;;;3.25;3.00;;;;;20.64;67.31;102772.09;5205503;27;45536;-68
2024/04/12 11:42:41;;;;;;;;;4.00;2.00;;;;;20.67;66.52;102772.84;5209795;27;44143;-68
2024/04/12 11:45:07;;;;;;;;;2.25;2.25;;;;;20.67;67.13;102769.25;5208090;27;45541;-68
2024/04/12 11:47:32;;;;;;;;;1.75;1.75;;;;;20.67;67.80;102766.53;5213335;27;44062;-68
2024/04/12 11:49:57;;;;;;;;;4.50;4.50;;;;;20.59;67.66;102744.22;5213971;27;51099;-68
2024/04/12 11:52:25;;;;;;;;;4.50;4.00;;;;;20.83;68.16;102772.16;5208879;27;43911;-68
2024/04/12 11:54:53;;;;;;;;;3.50;3.00;;;;;20.82;68.07;102756.84;5212778;27;44120;-68
2024/04/12 11:57:22;;;;;;;;;3.25;2.00;;;;;20.97;67.33;102756.16;5216836;27;43999;-69
2024/04/12 11:59:54;;;;;;;;;3.00;2.75;;;;;21.05;66.93;102756.69;5212950;27;44939;-68
2024/04/12 12:02:19;;;;;;;;;2.00;2.00;;;;;21.11;66.50;102758.25;5199081;27;44735;-67
2024/04/12 12:04:45;;;;;;;;;3.25;2.50;;;;;21.17;65.98;102757.13;5214036;27;44435;-67
2024/04/12 12:07:11;;;;;;;;;3.50;3.00;;;;;21.32;65.71;102778.13;5204082;27;44147;-67
2024/04/12 12:09:37;;;;;;;;;3.75;3.00;;;;;21.37;65.49;102769.78;5170625;27;54951;-67
2024/04/12 12:12:10;;;;;;;;;4.00;4.00;;;;;21.31;65.56;102748.31;5200160;27;44303;-67
2024/04/12 12:14:35;;;;;;;;;3.00;2.00;;;;;21.38;65.43;102747.94;5209097;27;43928;-67
2024/04/12 12:17:01;;;;;;;;;3.75;3.75;;;;;21.53;65.97;102764.53;5177545;27;44103;-67
2024/04/12 12:19:27;;;;;;;;;4.00;4.00;;;;;21.42;65.46;102741.44;5188909;27;45848;-67
2024/04/12 12:21:52;;;;;;;;;5.75;4.00;;;;;21.62;65.30;102764.13;5211880;27;44015;-67
2024/04/12 12:24:17;;;;;;;;;3.00;3.00;;;;;21.54;64.84;102740.00;5189924;27;43937;-67
2024/04/12 12:26:44;;;;;;;;;2.75;2.75;;;;;21.59;64.00;102742.53;5214008;27;44401;-68
2024/04/12 12:29:10;;;;;;;;;3.75;2.00;;;;;21.59;64.47;102732.53;5209595;27;43983;-67
2024/04/12 12:31:36;;;;;;;;;3.75;3.00;;;;;21.75;64.19;102743.56;5183182;27;46114;-67
2024/04/12 12:34:04;;;;;;;;;3.75;3.75;;;;;21.64;63.72;102724.16;5210767;27;44305;-67
2024/04/12 12:36:30;;;;;;;;;2.50;2.00;;;;;21.67;62.92;102715.88;5215950;27;43978;-67
2024/04/12 12:38:58;;;;;;;;;2.00;2.00;;;;;21.81;63.36;102745.09;5185007;27;45802;-67
2024/04/12 12:41:24;;;;;;;;;5.00;2.00;;;;;21.66;62.81;102719.53;5209750;27;44281;-67